createdAt,value
2023-03-19T00:01:05.354Z,27.40
2023-03-19T00:03:34.584Z,27.30
2023-03-19T00:06:03.304Z,27.40
2023-03-19T00:08:34.767Z,27.30
2023-03-19T00:11:11.068Z,27.30
2023-03-19T00:13:40.003Z,27.30
2023-03-19T00:16:08.437Z,27.30
2023-03-19T00:18:36.790Z,27.30
2023-03-19T00:21:05.349Z,27.30
2023-03-19T00:23:33.691Z,27.30
2023-03-19T00:26:02.045Z,27.30
2023-03-19T00:28:30.956Z,27.30
2023-03-19T00:31:06.986Z,27.20
2023-03-19T00:33:35.492Z,27.30
2023-03-19T00:36:03.979Z,27.30
2023-03-19T00:38:33.250Z,27.30
2023-03-19T00:41:04.984Z,27.20
2023-03-19T00:43:33.731Z,27.20
2023-03-19T00:46:02.554Z,27.10
2023-03-19T00:48:31.125Z,27.10
2023-03-19T00:51:09.685Z,27.10
2023-03-19T00:53:43.726Z,27.00
2023-03-19T00:56:14.121Z,27.00
2023-03-19T00:58:42.652Z,26.90
2023-03-19T01:01:12.223Z,26.90
2023-03-19T01:03:40.744Z,26.90
2023-03-19T01:06:09.246Z,26.90
2023-03-19T01:08:37.487Z,26.90
2023-03-19T01:11:15.877Z,26.90
2023-03-19T01:13:44.469Z,26.80
2023-03-19T01:16:12.745Z,26.80
2023-03-19T01:18:40.859Z,26.80
2023-03-19T01:21:09.346Z,26.80
2023-03-19T01:23:43.954Z,26.70
2023-03-19T01:26:12.455Z,26.70
2023-03-19T01:28:40.953Z,26.60
2023-03-19T01:31:11.298Z,26.60
2023-03-19T01:33:53.912Z,26.60
2023-03-19T01:36:32.625Z,26.60
2023-03-19T01:39:05.601Z,26.60
2023-03-19T01:41:34.300Z,26.60
2023-03-19T01:44:29.563Z,26.50
2023-03-19T01:47:25.032Z,26.50
2023-03-19T01:50:00.061Z,26.60
2023-03-19T01:52:34.043Z,26.60
2023-03-19T01:55:25.053Z,26.60
2023-03-19T01:58:10.024Z,26.60
2023-03-19T02:00:57.518Z,26.60
2023-03-19T02:03:26.718Z,26.50
2023-03-19T02:06:15.961Z,26.50
2023-03-19T02:08:44.362Z,26.50
2023-03-19T02:11:12.874Z,26.50
2023-03-19T02:13:41.197Z,26.40
2023-03-19T02:16:09.711Z,26.40
2023-03-19T02:18:38.335Z,26.40
2023-03-19T02:21:12.523Z,26.40
2023-03-19T02:24:22.496Z,26.40
2023-03-19T02:27:03.012Z,26.40
2023-03-19T02:29:31.953Z,26.40
2023-03-19T02:32:01.343Z,26.40
2023-03-19T02:34:38.810Z,26.30
2023-03-19T02:37:32.906Z,26.30
2023-03-19T02:41:00.686Z,26.30
2023-03-19T02:43:29.024Z,26.40
2023-03-19T02:45:57.221Z,26.30
2023-03-19T02:48:25.792Z,26.30
2023-03-19T02:50:54.140Z,26.30
2023-03-19T02:53:22.494Z,26.20
2023-03-19T02:55:52.905Z,26.20
2023-03-19T02:58:21.574Z,26.20
2023-03-19T03:00:49.826Z,26.10
2023-03-19T03:03:18.048Z,26.20
2023-03-19T03:05:46.351Z,26.10
2023-03-19T03:08:14.583Z,26.10
2023-03-19T03:10:42.946Z,26.10
2023-03-19T03:13:11.222Z,26.10
2023-03-19T03:15:39.371Z,26.00
2023-03-19T03:18:07.676Z,26.00
2023-03-19T03:20:36.156Z,26.00
2023-03-19T03:23:05.868Z,26.00
2023-03-19T03:25:34.063Z,26.00
2023-03-19T03:28:02.319Z,26.00
2023-03-19T03:30:30.515Z,25.90
2023-03-19T03:32:58.845Z,25.90
2023-03-19T03:35:27.060Z,25.90
2023-03-19T03:37:55.244Z,25.90
2023-03-19T03:40:23.523Z,25.90
2023-03-19T03:42:51.671Z,25.90
2023-03-19T03:45:20.089Z,25.90
2023-03-19T03:47:48.319Z,26.00
2023-03-19T03:50:16.778Z,25.90
2023-03-19T03:52:45.014Z,26.00
2023-03-19T03:55:13.304Z,25.90
2023-03-19T03:57:41.523Z,25.90
2023-03-19T04:00:10.537Z,26.00
2023-03-19T04:02:41.370Z,25.90
2023-03-19T04:05:13.176Z,25.80
2023-03-19T04:07:41.467Z,25.90
2023-03-19T04:10:11.217Z,25.90
2023-03-19T04:12:39.771Z,25.90
2023-03-19T04:15:10.593Z,25.90
2023-03-19T04:17:40.851Z,25.90
2023-03-19T04:20:10.230Z,25.90
2023-03-19T04:22:38.617Z,25.90
2023-03-19T04:25:08.135Z,25.90
2023-03-19T04:27:37.823Z,25.90
2023-03-19T04:30:08.529Z,25.90
2023-03-19T04:32:38.032Z,25.90
2023-03-19T04:35:06.984Z,25.80
2023-03-19T04:37:35.211Z,25.80
2023-03-19T04:40:03.516Z,25.70
2023-03-19T04:42:35.373Z,25.70
2023-03-19T04:45:14.345Z,25.70
2023-03-19T04:47:43.720Z,25.70
2023-03-19T04:50:12.358Z,25.70
2023-03-19T04:52:41.713Z,25.70
2023-03-19T04:55:10.323Z,25.60
2023-03-19T04:58:01.613Z,25.60
2023-03-19T05:00:32.107Z,25.60
2023-03-19T05:03:01.269Z,25.60
2023-03-19T05:05:31.703Z,25.60
2023-03-19T05:08:06.323Z,25.60
2023-03-19T05:10:36.033Z,25.60
2023-03-19T05:13:05.547Z,25.60
2023-03-19T05:15:34.995Z,25.60
2023-03-19T05:18:07.321Z,25.60
2023-03-19T05:20:40.680Z,25.70
2023-03-19T05:23:16.896Z,25.70
2023-03-19T05:25:58.746Z,25.70
2023-03-19T05:28:46.890Z,25.70
2023-03-19T05:31:18.434Z,25.70
2023-03-19T05:33:51.406Z,25.60
2023-03-19T05:36:20.105Z,25.60
2023-03-19T05:39:10.842Z,25.50
2023-03-19T05:41:41.812Z,25.50
2023-03-19T05:44:11.608Z,25.40
2023-03-19T05:47:11.470Z,25.40
2023-03-19T05:49:42.719Z,25.40
2023-03-19T05:52:11.805Z,25.30
2023-03-19T05:54:40.111Z,25.30
2023-03-19T05:57:31.789Z,25.40
2023-03-19T06:00:19.102Z,25.40
2023-03-19T06:02:49.378Z,25.50
2023-03-19T06:05:37.030Z,25.60
2023-03-19T06:08:15.084Z,25.60
2023-03-19T06:11:06.583Z,25.60
2023-03-19T06:13:35.971Z,25.60
2023-03-19T06:16:10.545Z,25.60
2023-03-19T06:18:42.677Z,25.60
2023-03-19T06:21:13.825Z,25.60
2023-03-19T06:23:42.093Z,25.60
2023-03-19T06:26:13.036Z,25.60
2023-03-19T06:28:51.001Z,25.60
2023-03-19T06:31:20.352Z,25.60
2023-03-19T06:34:11.220Z,25.60
2023-03-19T06:36:42.332Z,25.60
2023-03-19T06:39:12.952Z,25.60
2023-03-19T06:41:41.310Z,25.60
2023-03-19T06:44:20.420Z,25.60
2023-03-19T06:46:48.614Z,25.60
2023-03-19T06:49:17.093Z,25.50
2023-03-19T06:51:45.369Z,25.50
2023-03-19T06:54:13.559Z,25.50
2023-03-19T06:56:41.749Z,25.50
2023-03-19T06:59:09.932Z,25.50
2023-03-19T07:01:38.229Z,25.50
2023-03-19T07:04:06.558Z,25.50
2023-03-19T07:06:34.992Z,25.40
2023-03-19T07:09:03.269Z,25.50
2023-03-19T07:11:33.197Z,25.50
2023-03-19T07:14:04.174Z,25.50
2023-03-19T07:16:32.374Z,25.60
2023-03-19T07:19:00.581Z,25.60
2023-03-19T07:21:28.742Z,25.60
2023-03-19T07:23:56.938Z,25.60
2023-03-19T07:26:25.140Z,25.60
2023-03-19T07:28:53.433Z,25.70
2023-03-19T07:31:21.714Z,25.60
2023-03-19T07:33:50.042Z,25.60
2023-03-19T07:36:18.289Z,25.60
2023-03-19T07:38:46.465Z,25.60
2023-03-19T07:41:14.790Z,25.60
2023-03-19T07:43:43.064Z,25.60
2023-03-19T07:46:11.394Z,25.50
2023-03-19T07:48:39.470Z,25.50
2023-03-19T07:51:07.795Z,25.50
2023-03-19T07:53:35.960Z,25.50
2023-03-19T07:56:04.264Z,25.50
2023-03-19T07:58:32.528Z,25.60
2023-03-19T08:01:00.571Z,25.40
2023-03-19T08:03:28.724Z,25.40
2023-03-19T08:05:56.988Z,25.40
2023-03-19T08:08:25.378Z,25.40
2023-03-19T08:10:56.592Z,25.50
2023-03-19T08:13:24.889Z,25.60
2023-03-19T08:15:52.990Z,25.70
2023-03-19T08:18:21.301Z,25.70
2023-03-19T08:20:50.152Z,25.70
2023-03-19T08:23:18.352Z,25.80
2023-03-19T08:25:46.603Z,25.70
2023-03-19T08:28:14.789Z,25.70
2023-03-19T08:30:43.087Z,25.70
2023-03-19T08:33:11.350Z,25.60
2023-03-19T08:35:40.011Z,25.70
2023-03-19T08:38:08.374Z,25.80
2023-03-19T08:40:36.831Z,25.80
2023-03-19T08:43:05.410Z,25.80
2023-03-19T08:45:33.731Z,25.80
2023-03-19T08:48:02.118Z,25.90
2023-03-19T08:50:30.436Z,25.90
2023-03-19T08:52:58.613Z,26.00
2023-03-19T08:55:26.795Z,26.00
2023-03-19T08:57:55.112Z,26.10
2023-03-19T09:00:23.331Z,26.20
2023-03-19T09:02:51.592Z,26.30
2023-03-19T09:05:19.875Z,26.30
2023-03-19T09:07:48.251Z,26.30
2023-03-19T09:10:16.564Z,26.40
2023-03-19T09:12:45.436Z,26.30
2023-03-19T09:15:14.420Z,26.50
2023-03-19T09:17:42.585Z,26.50
2023-03-19T09:20:11.342Z,26.50
2023-03-19T09:22:39.567Z,26.60
2023-03-19T09:25:08.333Z,26.70
2023-03-19T09:27:36.667Z,26.80
2023-03-19T09:30:06.511Z,26.90
2023-03-19T09:32:34.870Z,26.90
2023-03-19T09:35:03.189Z,26.90
2023-03-19T09:37:31.395Z,26.90
2023-03-19T09:39:59.568Z,27.00
2023-03-19T09:43:00.403Z,27.00
2023-03-19T09:45:29.684Z,27.10
2023-03-19T09:48:03.449Z,27.10
2023-03-19T09:50:33.664Z,27.10
2023-03-19T09:53:01.929Z,27.10
2023-03-19T09:55:52.827Z,27.20
2023-03-19T09:58:30.495Z,27.20
2023-03-19T10:01:00.119Z,27.20
2023-03-19T10:03:59.127Z,27.30
2023-03-19T10:06:45.634Z,27.30
2023-03-19T10:09:26.429Z,27.40
2023-03-19T10:12:31.338Z,27.40
2023-03-19T10:15:02.500Z,27.40
2023-03-19T10:17:38.558Z,27.50
2023-03-19T10:20:30.923Z,27.50
2023-03-19T10:23:11.227Z,27.60
2023-03-19T10:25:41.842Z,27.60
2023-03-19T10:28:21.349Z,27.80
2023-03-19T10:31:19.811Z,27.90
2023-03-19T10:34:02.961Z,28.00
2023-03-19T10:36:36.915Z,28.10
2023-03-19T10:39:05.861Z,28.20
2023-03-19T10:41:52.164Z,28.20
2023-03-19T10:44:34.901Z,28.20
2023-03-19T10:47:26.309Z,28.20
2023-03-19T10:49:56.727Z,28.10
2023-03-19T10:52:36.308Z,28.10
2023-03-19T10:55:45.206Z,28.10
2023-03-19T10:58:19.603Z,28.20
2023-03-19T11:00:49.996Z,28.20
2023-03-19T11:03:37.418Z,28.40
2023-03-19T11:06:18.053Z,28.50
2023-03-19T11:09:19.356Z,28.40
2023-03-19T11:11:51.024Z,28.40
2023-03-19T11:14:26.329Z,28.30
2023-03-19T11:17:05.921Z,28.30
2023-03-19T11:19:42.266Z,28.40
2023-03-19T11:22:20.741Z,28.40
2023-03-19T11:25:02.087Z,28.50
2023-03-19T11:27:33.138Z,28.60
2023-03-19T11:30:13.152Z,28.70
2023-03-19T11:33:01.745Z,28.70
2023-03-19T11:35:44.086Z,28.80
2023-03-19T11:38:23.464Z,28.80
2023-03-19T11:41:25.959Z,28.80
2023-03-19T11:44:12.041Z,28.80
2023-03-19T11:47:00.314Z,28.80
2023-03-19T11:49:52.386Z,28.90
2023-03-19T11:52:26.843Z,28.90
2023-03-19T11:55:24.600Z,29.00
2023-03-19T11:58:02.706Z,29.00
2023-03-19T12:00:53.446Z,28.90
2023-03-19T12:03:43.516Z,29.00
2023-03-19T12:06:25.397Z,29.00
2023-03-19T12:09:16.978Z,29.00
2023-03-19T12:12:14.556Z,29.10
2023-03-19T12:15:15.221Z,29.10
2023-03-19T12:18:02.353Z,29.00
2023-03-19T12:20:38.182Z,29.10
2023-03-19T12:23:35.907Z,29.20
2023-03-19T12:26:06.580Z,29.20
2023-03-19T12:28:54.732Z,29.30
2023-03-19T12:31:39.013Z,29.30
2023-03-19T12:34:07.305Z,29.40
2023-03-19T12:36:46.403Z,29.30
2023-03-19T12:39:25.324Z,29.20
2023-03-19T12:41:58.407Z,29.30
2023-03-19T12:44:41.344Z,29.20
2023-03-19T12:47:21.268Z,29.20
2023-03-19T12:49:59.313Z,29.10
2023-03-19T12:52:32.327Z,29.20
2023-03-19T12:55:17.218Z,29.30
2023-03-19T12:58:09.303Z,29.40
2023-03-19T13:00:53.851Z,29.50
2023-03-19T13:03:41.737Z,29.30
2023-03-19T13:06:45.831Z,29.40
2023-03-19T13:09:32.454Z,29.40
2023-03-19T13:12:14.488Z,29.50
2023-03-19T13:15:03.918Z,29.50
2023-03-19T13:18:00.482Z,29.50
2023-03-19T13:20:44.089Z,29.50
2023-03-19T13:23:20.752Z,29.50
2023-03-19T13:25:50.964Z,29.60
2023-03-19T13:28:35.342Z,29.70
2023-03-19T13:31:21.175Z,29.70
2023-03-19T13:34:06.742Z,29.70
2023-03-19T13:36:40.019Z,29.80
2023-03-19T13:39:21.251Z,29.80
2023-03-19T13:42:08.942Z,30.00
2023-03-19T13:44:42.390Z,30.00
2023-03-19T13:47:40.923Z,30.10
2023-03-19T13:50:23.615Z,30.20
2023-03-19T13:52:55.641Z,30.20
2023-03-19T13:55:27.016Z,30.30
2023-03-19T13:58:19.030Z,30.40
2023-03-19T14:00:58.626Z,30.40
2023-03-19T14:03:30.505Z,30.40
2023-03-19T14:06:00.227Z,30.50
2023-03-19T14:08:34.732Z,30.40
2023-03-19T14:11:04.283Z,30.50
2023-03-19T14:13:47.996Z,30.40
2023-03-19T14:16:27.181Z,30.50
2023-03-19T14:19:01.302Z,30.60
2023-03-19T14:21:46.374Z,30.60
2023-03-19T14:24:58.160Z,30.80
2023-03-19T14:27:35.087Z,30.90
2023-03-19T14:30:10.763Z,31.20
2023-03-19T14:32:41.250Z,31.10
2023-03-19T14:35:16.102Z,31.10
2023-03-19T14:37:49.620Z,31.20
2023-03-19T14:40:26.312Z,31.40
2023-03-19T14:43:02.923Z,31.30
2023-03-19T14:45:49.884Z,31.40
2023-03-19T14:48:59.073Z,31.10
2023-03-19T14:51:45.844Z,31.10
2023-03-19T14:54:16.909Z,30.90
2023-03-19T14:56:47.887Z,30.90
2023-03-19T14:59:16.225Z,30.80
2023-03-19T15:01:52.989Z,30.70
2023-03-19T15:04:26.424Z,30.40
2023-03-19T15:06:58.723Z,30.30
2023-03-19T15:09:29.961Z,30.60
2023-03-19T15:12:20.683Z,30.70
2023-03-19T15:14:48.833Z,30.70
2023-03-19T15:17:31.233Z,30.80
2023-03-19T15:20:03.359Z,30.90
2023-03-19T15:22:35.717Z,30.80
2023-03-19T15:25:14.860Z,30.70
2023-03-19T15:27:43.596Z,30.70
2023-03-19T15:30:22.287Z,30.70
2023-03-19T15:33:04.412Z,30.40
2023-03-19T15:35:37.247Z,30.20
2023-03-19T15:38:11.388Z,30.30
2023-03-19T15:40:41.528Z,30.60
2023-03-19T15:43:13.476Z,30.60
2023-03-19T15:45:42.825Z,30.70
2023-03-19T15:48:21.996Z,30.70
2023-03-19T15:50:54.773Z,30.60
2023-03-19T15:53:29.131Z,30.60
2023-03-19T15:55:57.990Z,30.70
2023-03-19T15:58:31.076Z,30.60
2023-03-19T16:01:01.732Z,30.40
2023-03-19T16:03:36.708Z,30.30
2023-03-19T16:06:33.833Z,30.10
2023-03-19T16:09:20.332Z,30.30
2023-03-19T16:11:49.083Z,30.20
2023-03-19T16:14:17.187Z,30.10
2023-03-19T16:16:47.915Z,30.10
2023-03-19T16:19:36.458Z,30.20
2023-03-19T16:22:19.133Z,30.20
2023-03-19T16:24:48.891Z,30.10
2023-03-19T16:27:26.366Z,30.30
2023-03-19T16:30:00.051Z,30.40
2023-03-19T16:32:30.460Z,30.50
2023-03-19T16:35:13.951Z,30.40
2023-03-19T16:37:44.514Z,30.20
2023-03-19T16:40:12.808Z,30.10
2023-03-19T16:42:51.201Z,30.00
2023-03-19T16:45:30.309Z,30.20
2023-03-19T16:48:01.489Z,30.20
2023-03-19T16:50:34.741Z,30.30
2023-03-19T16:53:15.000Z,30.30
2023-03-19T16:55:43.384Z,30.40
2023-03-19T16:58:18.058Z,30.50
2023-03-19T17:00:47.167Z,30.50
2023-03-19T17:03:17.478Z,30.70
2023-03-19T17:05:47.280Z,31.10
2023-03-19T17:08:15.586Z,31.70
2023-03-19T17:10:47.723Z,31.90
2023-03-19T17:13:35.711Z,32.30
2023-03-19T17:16:07.478Z,32.80
2023-03-19T17:18:36.376Z,32.30
2023-03-19T17:21:10.271Z,31.90
2023-03-19T17:23:38.734Z,31.60
2023-03-19T17:26:24.453Z,31.60
2023-03-19T17:28:53.422Z,31.70
2023-03-19T17:31:30.836Z,31.60
2023-03-19T17:34:10.534Z,31.80
2023-03-19T17:36:39.223Z,31.90
2023-03-19T17:39:10.740Z,31.70
2023-03-19T17:41:38.922Z,31.60
2023-03-19T17:44:07.343Z,31.50
2023-03-19T17:46:55.308Z,31.30
2023-03-19T17:49:30.031Z,30.80
2023-03-19T17:51:59.647Z,30.50
2023-03-19T17:54:28.017Z,30.40
2023-03-19T17:56:57.137Z,30.00
2023-03-19T17:59:25.382Z,29.70
2023-03-19T18:01:53.807Z,29.50
2023-03-19T18:04:22.511Z,29.30
2023-03-19T18:06:56.481Z,29.30
2023-03-19T18:09:26.971Z,29.10
2023-03-19T18:11:55.434Z,29.00
2023-03-19T18:14:23.802Z,28.80
2023-03-19T18:16:52.333Z,28.70
2023-03-19T18:19:24.077Z,28.70
2023-03-19T18:21:52.296Z,28.70
2023-03-19T18:24:21.001Z,28.60
2023-03-19T18:26:49.392Z,28.50
2023-03-19T18:29:17.718Z,28.40
2023-03-19T18:31:49.105Z,28.40
2023-03-19T18:34:18.180Z,28.30
2023-03-19T18:36:46.431Z,28.20
2023-03-19T18:39:16.108Z,28.20
2023-03-19T18:41:45.136Z,28.10
2023-03-19T18:44:13.263Z,28.20
2023-03-19T18:46:42.381Z,28.10
2023-03-19T18:49:20.240Z,28.10
2023-03-19T18:52:01.566Z,28.10
2023-03-19T18:54:32.334Z,28.00
2023-03-19T18:57:01.587Z,28.00
2023-03-19T18:59:32.111Z,28.00
2023-03-19T19:02:04.112Z,28.00
2023-03-19T19:04:32.500Z,27.90
2023-03-19T19:07:13.827Z,27.90
2023-03-19T19:09:42.832Z,27.80
2023-03-19T19:12:18.329Z,27.80
2023-03-19T19:14:47.435Z,27.80
2023-03-19T19:17:22.783Z,27.80
2023-03-19T19:19:51.404Z,27.80
2023-03-19T19:22:20.695Z,27.70
2023-03-19T19:24:49.076Z,27.70
2023-03-19T19:27:22.977Z,27.70
2023-03-19T19:29:51.668Z,27.70
2023-03-19T19:32:28.489Z,27.70
2023-03-19T19:34:57.106Z,27.70
2023-03-19T19:37:25.444Z,27.70
2023-03-19T19:39:53.869Z,27.70
2023-03-19T19:42:23.313Z,27.60
2023-03-19T19:44:56.181Z,27.60
2023-03-19T19:47:24.492Z,27.60
2023-03-19T19:49:52.714Z,27.60
2023-03-19T19:52:21.317Z,27.60
2023-03-19T19:54:49.863Z,27.60
2023-03-19T19:57:20.607Z,27.60
2023-03-19T19:59:49.968Z,27.60
2023-03-19T20:02:27.212Z,27.60
2023-03-19T20:04:55.627Z,27.50
2023-03-19T20:07:24.091Z,27.60
2023-03-19T20:09:52.381Z,27.60
2023-03-19T20:12:31.214Z,27.60
2023-03-19T20:15:02.425Z,27.60
2023-03-19T20:17:30.914Z,27.60
2023-03-19T20:19:59.164Z,27.60
2023-03-19T20:22:27.461Z,27.60
2023-03-19T20:24:55.915Z,27.60
2023-03-19T20:27:31.042Z,27.60
2023-03-19T20:29:59.700Z,27.50
2023-03-19T20:32:35.515Z,27.60
2023-03-19T20:35:05.618Z,27.60
2023-03-19T20:37:33.915Z,27.60
2023-03-19T20:40:02.092Z,27.60
2023-03-19T20:42:32.269Z,27.60
2023-03-19T20:45:00.898Z,27.60
2023-03-19T20:47:29.940Z,27.60
2023-03-19T20:49:58.329Z,27.60
2023-03-19T20:52:26.436Z,27.60
2023-03-19T20:54:54.901Z,27.60
2023-03-19T20:57:28.908Z,27.60
2023-03-19T21:00:03.408Z,27.60
2023-03-19T21:02:31.776Z,27.60
2023-03-19T21:05:00.180Z,27.60
2023-03-19T21:07:32.490Z,27.60
2023-03-19T21:10:02.740Z,27.60
2023-03-19T21:12:32.949Z,27.60
2023-03-19T21:15:01.827Z,27.50
2023-03-19T21:17:30.085Z,27.50
2023-03-19T21:19:58.359Z,27.50
2023-03-19T21:22:29.236Z,27.50
2023-03-19T21:25:07.297Z,27.50
2023-03-19T21:27:37.254Z,27.50
2023-03-19T21:30:12.181Z,27.50
2023-03-19T21:32:40.372Z,27.50
2023-03-19T21:35:18.877Z,27.40
2023-03-19T21:37:48.084Z,27.40
2023-03-19T21:40:36.421Z,27.40
2023-03-19T21:43:05.412Z,27.40
2023-03-19T21:45:37.100Z,27.40
2023-03-19T21:48:29.640Z,27.40
2023-03-19T21:50:59.041Z,27.40
2023-03-19T21:53:28.086Z,27.40
2023-03-19T21:55:58.497Z,27.40
2023-03-19T21:58:35.925Z,27.40
2023-03-19T22:01:07.601Z,27.40
2023-03-19T22:03:35.920Z,27.30
2023-03-19T22:06:04.390Z,27.40
2023-03-19T22:08:32.679Z,27.30
2023-03-19T22:11:02.071Z,27.30
2023-03-19T22:13:32.615Z,27.30
2023-03-19T22:16:01.402Z,27.30
2023-03-19T22:18:29.691Z,27.30
2023-03-19T22:20:58.116Z,27.30
2023-03-19T22:23:26.345Z,27.30
2023-03-19T22:25:54.777Z,27.30
2023-03-19T22:28:36.151Z,27.20
2023-03-19T22:31:04.931Z,27.20
2023-03-19T22:33:33.374Z,27.20
2023-03-19T22:36:01.807Z,27.20
2023-03-19T22:38:30.249Z,27.20
2023-03-19T22:40:58.662Z,27.20
2023-03-19T22:43:33.791Z,27.20
2023-03-19T22:46:08.157Z,27.20
2023-03-19T22:48:36.564Z,27.20
2023-03-19T22:51:05.643Z,27.20
2023-03-19T22:53:36.776Z,27.20
2023-03-19T22:56:05.820Z,27.10
2023-03-19T22:58:34.006Z,27.10
2023-03-19T23:01:02.456Z,27.10
2023-03-19T23:03:31.659Z,27.10
2023-03-19T23:06:03.119Z,27.10
2023-03-19T23:08:31.496Z,27.10
2023-03-19T23:10:59.890Z,27.10
2023-03-19T23:13:28.178Z,27.10
2023-03-19T23:15:58.406Z,27.10
2023-03-19T23:18:31.225Z,27.10
2023-03-19T23:21:00.632Z,27.00
2023-03-19T23:23:30.210Z,27.10
2023-03-19T23:25:58.742Z,27.00
2023-03-19T23:28:32.773Z,27.10
2023-03-19T23:31:03.035Z,27.00
2023-03-19T23:33:31.414Z,27.00
2023-03-19T23:35:59.866Z,27.00
2023-03-19T23:38:28.038Z,27.00
2023-03-19T23:40:56.549Z,27.00
2023-03-19T23:43:28.522Z,27.00
2023-03-19T23:45:57.898Z,27.00
2023-03-19T23:48:35.414Z,27.00
2023-03-19T23:51:04.061Z,27.00
2023-03-19T23:53:32.741Z,26.90
2023-03-19T23:56:10.418Z,27.00
2023-03-19T23:58:43.370Z,27.00
